Time;durP1;ratioP1;P1;durP2;ratioP2;P2;SDS_P1;SDS_P2;PMS_P1;PMS_P2;Temp;Humidity;BMP_temperature;BMP_pressure;BME280_temperature;BME280_humidity;BME280_pressure;Samples;Min_cycle;Max_cycle;Signal;HPM_P1;HPM_P2
2022/01/11 00:00:36;;;;;;;68.87;17.97;;;0.80;99.90;;;;;;4952381;28;20038;-75
2022/01/11 00:03:17;;;;;;;58.90;18.03;;;0.80;99.90;;;;;;4962071;28;20023;-75
2022/01/11 00:06:16;;;;;;;52.80;17.23;;;0.80;99.90;;;;;;4951380;28;20037;-75
2022/01/11 00:08:45;;;;;;;79.23;16.67;;;0.80;99.90;;;;;;4938645;28;20058;-75
2022/01/11 00:11:11;;;;;;;104.43;19.13;;;0.80;99.90;;;;;;4952903;28;20034;-75
2022/01/11 00:13:39;;;;;;;70.93;17.20;;;0.80;99.90;;;;;;4949119;28;20046;-75
2022/01/11 00:16:08;;;;;;;62.67;16.03;;;0.80;99.90;;;;;;4953465;28;20028;-74
2022/01/11 00:18:35;;;;;;;80.20;18.10;;;0.80;99.90;;;;;;4947282;28;20035;-75
2022/01/11 00:21:02;;;;;;;82.77;17.73;;;0.80;99.90;;;;;;4952813;28;20458;-75
2022/01/11 00:25:56;;;;;;;64.43;17.37;;;0.90;99.90;;;;;;4950152;28;20027;-75
2022/01/11 00:28:25;;;;;;;80.17;18.20;;;0.90;99.90;;;;;;4950886;28;20034;-75
2022/01/11 00:31:00;;;;;;;69.83;18.03;;;0.90;99.90;;;;;;4951734;28;20043;-75
2022/01/11 00:33:38;;;;;;;93.87;22.00;;;0.90;99.90;;;;;;4930559;28;20030;-75
2022/01/11 00:36:07;;;;;;;106.70;21.13;;;0.90;99.90;;;;;;4952404;28;20089;-75
2022/01/11 00:38:38;;;;;;;269.80;28.43;;;0.80;99.90;;;;;;4949411;28;20051;-75
2022/01/11 00:41:07;;;;;;;248.07;27.90;;;0.80;99.90;;;;;;4963445;28;22877;-75
2022/01/11 00:43:35;;;;;;;143.37;26.60;;;0.80;99.90;;;;;;4944663;28;20030;-74
2022/01/11 00:46:03;;;;;;;244.57;31.80;;;0.80;99.90;;;;;;4952389;28;20752;-74
2022/01/11 00:48:29;;;;;;;229.17;28.37;;;0.70;99.90;;;;;;4935494;28;20048;-74
2022/01/11 00:50:56;;;;;;;150.00;26.90;;;0.70;99.90;;;;;;4952149;28;20027;-74
2022/01/11 00:53:23;;;;;;;82.47;21.53;;;0.70;99.90;;;;;;4935736;28;20438;-74
2022/01/11 00:55:50;;;;;;;116.13;22.93;;;0.70;99.90;;;;;;4953452;28;20387;-74
2022/01/11 00:58:18;;;;;;;107.03;22.33;;;0.70;99.90;;;;;;4953591;28;20477;-73
2022/01/11 01:00:45;;;;;;;100.53;22.77;;;0.70;99.90;;;;;;4954615;28;20370;-74
2022/01/11 01:03:11;;;;;;;129.13;26.20;;;0.70;99.90;;;;;;4950837;28;20034;-74
2022/01/11 01:05:38;;;;;;;110.73;23.50;;;0.70;99.90;;;;;;4953944;28;20046;-74
2022/01/11 01:08:06;;;;;;;62.57;19.50;;;0.70;99.90;;;;;;4952726;28;20834;-74
2022/01/11 01:10:37;;;;;;;87.27;22.77;;;0.70;99.90;;;;;;4956347;28;20517;-74
2022/01/11 01:13:10;;;;;;;59.90;19.37;;;0.70;99.90;;;;;;4933797;28;20399;-74
2022/01/11 01:15:37;;;;;;;196.52;28.05;;;0.70;99.90;;;;;;4953568;28;20027;-74
2022/01/11 01:18:15;;;;;;;69.17;20.80;;;0.70;99.90;;;;;;4956943;28;20027;-74
2022/01/11 01:20:44;;;;;;;48.43;17.33;;;0.70;99.90;;;;;;4940287;28;20027;-73
2022/01/11 01:23:12;;;;;;;51.50;18.33;;;0.70;99.90;;;;;;4952771;28;20026;-74
2022/01/11 01:25:41;;;;;;;52.23;18.53;;;0.70;99.90;;;;;;4972867;28;20023;-74
2022/01/11 01:28:08;;;;;;;56.93;20.30;;;0.70;99.90;;;;;;4951750;28;20019;-74
2022/01/11 01:30:35;;;;;;;59.67;19.33;;;0.70;99.90;;;;;;4952444;28;20034;-74
2022/01/11 01:33:03;;;;;;;58.80;18.83;;;0.70;99.90;;;;;;4951492;28;20042;-74
2022/01/11 01:35:36;;;;;;;129.60;25.63;;;0.70;99.90;;;;;;4955686;28;20038;-73
2022/01/11 01:38:03;;;;;;;74.50;22.17;;;0.70;99.90;;;;;;4956711;28;20039;-74
2022/01/11 01:40:36;;;;;;;84.00;21.97;;;0.70;99.90;;;;;;4958264;28;20027;-74
2022/01/11 01:43:05;;;;;;;73.07;22.33;;;0.70;99.90;;;;;;4955927;28;20035;-74
2022/01/11 01:45:31;;;;;;;91.67;24.43;;;0.70;99.90;;;;;;4957217;28;20030;-74
2022/01/11 01:47:58;;;;;;;90.57;21.57;;;0.80;99.90;;;;;;4952295;28;20034;-74
2022/01/11 01:50:26;;;;;;;62.90;21.87;;;0.80;99.90;;;;;;4955999;28;20463;-74
2022/01/11 01:52:55;;;;;;;70.40;22.00;;;0.80;99.90;;;;;;4953072;28;20067;-74
2022/01/11 01:55:23;;;;;;;75.93;23.33;;;0.80;99.90;;;;;;4951173;28;20042;-74
2022/01/11 01:57:51;;;;;;;64.60;21.40;;;0.80;99.90;;;;;;4954316;28;20035;-74
2022/01/11 02:00:19;;;;;;;62.93;20.83;;;0.80;99.90;;;;;;4939903;28;20027;-74
2022/01/11 02:02:45;;;;;;;48.90;17.87;;;0.80;99.90;;;;;;4951451;28;20015;-74
2022/01/11 02:05:12;;;;;;;50.33;17.87;;;0.80;99.90;;;;;;4937508;28;20038;-73
2022/01/11 02:07:38;;;;;;;53.83;16.70;;;0.80;99.90;;;;;;4952313;28;20027;-73
2022/01/11 02:10:07;;;;;;;48.07;19.10;;;0.80;99.90;;;;;;4953648;28;20394;-74
2022/01/11 02:12:34;;;;;;;46.73;19.77;;;0.80;99.90;;;;;;4945996;28;20043;-73
2022/01/11 02:15:03;;;;;;;48.90;19.47;;;0.80;99.90;;;;;;4933962;28;20422;-73
2022/01/11 02:17:32;;;;;;;47.00;18.50;;;0.80;99.90;;;;;;4954354;28;20035;-75
2022/01/11 02:19:59;;;;;;;48.37;18.17;;;0.90;99.90;;;;;;4936830;28;20027;-75
2022/01/11 02:22:26;;;;;;;38.07;16.07;;;0.90;99.90;;;;;;4952186;28;20033;-75
2022/01/11 02:24:53;;;;;;;89.97;24.03;;;0.90;99.90;;;;;;4950928;28;20031;-75
2022/01/11 02:27:22;;;;;;;68.80;24.40;;;0.90;99.90;;;;;;4952132;28;20019;-75
2022/01/11 02:29:48;;;;;;;63.43;23.67;;;0.90;99.90;;;;;;4951681;28;20062;-74
2022/01/11 02:32:15;;;;;;;58.10;23.10;;;0.90;99.90;;;;;;4948192;28;20027;-75
2022/01/11 02:34:42;;;;;;;81.00;25.93;;;0.90;99.90;;;;;;4935229;28;20540;-74
2022/01/11 02:37:29;;;;;;;155.73;28.23;;;0.90;99.90;;;;;;4950750;28;20035;-75
2022/01/11 02:40:09;;;;;;;201.53;31.00;;;0.90;99.90;;;;;;4954032;28;20035;-74
2022/01/11 02:42:35;;;;;;;134.60;28.60;;;0.90;99.90;;;;;;4948899;28;20463;-74
2022/01/11 02:45:02;;;;;;;91.00;26.37;;;0.80;99.90;;;;;;4952550;28;20030;-75
2022/01/11 02:47:33;;;;;;;80.57;22.30;;;0.80;99.90;;;;;;4935158;28;20390;-75
2022/01/11 02:50:00;;;;;;;113.60;28.77;;;0.80;99.90;;;;;;4955427;28;20018;-75
2022/01/11 02:52:32;;;;;;;325.00;41.03;;;0.80;99.90;;;;;;4949643;28;20042;-75
2022/01/11 02:55:03;;;;;;;182.10;31.10;;;0.80;99.90;;;;;;4953303;28;20042;-74
2022/01/11 02:57:29;;;;;;;83.97;26.63;;;0.80;99.90;;;;;;4953199;28;20374;-74
2022/01/11 03:00:11;;;;;;;99.73;27.30;;;0.80;99.90;;;;;;4952878;28;21168;-74
2022/01/11 03:02:39;;;;;;;183.45;33.90;;;0.80;99.90;;;;;;4950329;28;20027;-74
2022/01/11 03:05:08;;;;;;;87.90;28.60;;;0.70;99.90;;;;;;4936642;28;20032;-73
2022/01/11 03:07:35;;;;;;;88.03;28.73;;;0.70;99.90;;;;;;4949514;28;20037;-74
2022/01/11 03:10:12;;;;;;;79.90;24.93;;;0.70;99.90;;;;;;4952546;28;20016;-74
2022/01/11 03:12:46;;;;;;;85.43;25.80;;;0.70;99.90;;;;;;4950104;28;20045;-73
2022/01/11 03:15:13;;;;;;;70.33;23.60;;;0.70;99.90;;;;;;4949590;28;20030;-74
2022/01/11 03:17:42;;;;;;;80.10;23.07;;;0.70;99.90;;;;;;4937029;28;20035;-74
2022/01/11 03:20:10;;;;;;;148.87;30.13;;;0.80;99.90;;;;;;4950495;28;20030;-74
2022/01/11 03:22:37;;;;;;;69.20;25.70;;;0.80;99.90;;;;;;4949584;28;20051;-74
2022/01/11 03:25:07;;;;;;;111.27;28.57;;;0.80;99.90;;;;;;4950123;28;20029;-74
2022/01/11 03:27:35;;;;;;;63.37;24.40;;;0.80;99.90;;;;;;4952185;28;20462;-74
2022/01/11 03:30:04;;;;;;;102.20;29.07;;;0.80;99.90;;;;;;4948560;28;20402;-74
2022/01/11 03:32:31;;;;;;;80.73;28.13;;;0.80;99.90;;;;;;4932773;28;20637;-74
2022/01/11 03:34:57;;;;;;;86.33;26.53;;;0.80;99.90;;;;;;4951035;28;20034;-74
2022/01/11 03:37:24;;;;;;;65.80;24.50;;;0.80;99.90;;;;;;4952704;28;20394;-74
2022/01/11 03:39:52;;;;;;;70.50;25.27;;;0.90;99.90;;;;;;4952581;28;20019;-74
2022/01/11 03:42:19;;;;;;;96.57;30.43;;;0.80;99.90;;;;;;4947120;28;20034;-74
2022/01/11 03:44:45;;;;;;;72.83;25.17;;;0.80;99.90;;;;;;4966331;28;20447;-74
2022/01/11 03:47:13;;;;;;;62.67;25.53;;;0.80;99.90;;;;;;4951369;28;20378;-74
2022/01/11 03:49:40;;;;;;;93.27;30.50;;;0.90;99.90;;;;;;4952249;28;20043;-74
2022/01/11 03:52:07;;;;;;;98.07;31.97;;;0.90;99.90;;;;;;4950088;28;20049;-74
2022/01/11 03:55:01;;;;;;;66.03;25.77;;;0.80;99.90;;;;;;4966842;28;20038;-74
2022/01/11 03:57:35;;;;;;;65.23;25.60;;;0.80;99.90;;;;;;4949050;28;20026;-74
2022/01/11 04:00:10;;;;;;;76.57;25.17;;;0.90;99.90;;;;;;4934832;28;20026;-74
2022/01/11 04:02:41;;;;;;;103.57;32.27;;;0.90;99.90;;;;;;4947816;28;20396;-74
2022/01/11 04:05:12;;;;;;;106.53;31.57;;;0.90;99.90;;;;;;4933754;28;20027;-74
2022/01/11 04:07:40;;;;;;;77.37;28.50;;;0.90;99.90;;;;;;4920468;28;20031;-74
2022/01/11 04:10:09;;;;;;;61.97;26.43;;;0.80;99.90;;;;;;4951327;28;20031;-74
2022/01/11 04:12:36;;;;;;;76.90;26.50;;;0.80;99.90;;;;;;4946053;28;20454;-74
2022/01/11 04:15:03;;;;;;;80.67;30.20;;;0.80;99.90;;;;;;4933472;28;20014;-74
2022/01/11 04:17:30;;;;;;;73.73;27.07;;;0.80;99.90;;;;;;4950658;28;20035;-74
2022/01/11 04:19:56;;;;;;;135.40;36.07;;;0.80;99.90;;;;;;4937435;28;20583;-74
2022/01/11 04:22:23;;;;;;;65.27;26.77;;;0.80;99.90;;;;;;4951153;28;20085;-74
2022/01/11 04:24:49;;;;;;;62.03;25.87;;;0.80;99.90;;;;;;4936467;28;20031;-74
2022/01/11 04:27:16;;;;;;;70.37;27.67;;;0.80;99.90;;;;;;4952896;28;20391;-74
2022/01/11 04:29:43;;;;;;;55.33;22.23;;;0.80;99.90;;;;;;4937063;28;20039;-74
2022/01/11 04:32:09;;;;;;;60.23;24.23;;;0.80;99.90;;;;;;4952642;28;21174;-74
2022/01/11 04:34:36;;;;;;;58.00;26.70;;;0.80;99.90;;;;;;4952291;28;20023;-74
2022/01/11 04:37:02;;;;;;;87.17;30.67;;;0.80;99.90;;;;;;4954035;28;20047;-74
2022/01/11 04:39:31;;;;;;;70.43;28.57;;;0.80;99.90;;;;;;4938898;28;20501;-74
2022/01/11 04:41:58;;;;;;;97.47;33.73;;;0.80;99.90;;;;;;4933609;28;20042;-74
2022/01/11 04:44:25;;;;;;;81.90;33.77;;;0.80;99.90;;;;;;4934124;28;20024;-74
2022/01/11 04:46:52;;;;;;;101.03;33.60;;;0.80;99.90;;;;;;4953309;28;20041;-74
2022/01/11 04:49:18;;;;;;;123.77;38.37;;;0.80;99.90;;;;;;4954697;28;20046;-74
2022/01/11 04:51:47;;;;;;;86.67;32.90;;;0.80;99.90;;;;;;4938140;28;20031;-74
2022/01/11 04:54:13;;;;;;;87.23;33.33;;;0.80;99.90;;;;;;4952083;28;20031;-73
2022/01/11 04:56:40;;;;;;;62.03;27.70;;;0.80;99.90;;;;;;4957182;28;20043;-76
2022/01/11 04:59:07;;;;;;;100.43;32.30;;;0.80;99.90;;;;;;4936928;28;20039;-75
2022/01/11 05:01:35;;;;;;;106.67;34.87;;;0.80;99.90;;;;;;4954220;28;20507;-75
2022/01/11 05:04:01;;;;;;;84.37;31.97;;;0.80;99.90;;;;;;4931341;28;20024;-76
2022/01/11 05:06:28;;;;;;;63.43;25.60;;;0.80;99.90;;;;;;4954901;28;20023;-76
2022/01/11 05:08:55;;;;;;;101.73;34.43;;;0.80;99.90;;;;;;4956027;28;20026;-76
2022/01/11 05:11:22;;;;;;;96.70;34.63;;;0.80;99.90;;;;;;4957347;28;20034;-73
2022/01/11 05:13:49;;;;;;;90.27;33.07;;;0.80;99.90;;;;;;4953468;28;20042;-74
2022/01/11 05:16:32;;;;;;;67.27;28.37;;;0.80;99.90;;;;;;4958177;28;20045;-74
2022/01/11 05:18:59;;;;;;;156.23;41.77;;;0.80;99.90;;;;;;4953396;28;20023;-74
2022/01/11 05:21:25;;;;;;;77.07;31.40;;;0.80;99.90;;;;;;4955112;28;20032;-74
2022/01/11 05:23:52;;;;;;;70.93;26.47;;;0.80;99.90;;;;;;4935190;28;20031;-74
2022/01/11 05:26:19;;;;;;;88.20;31.23;;;0.80;99.90;;;;;;4939585;28;20049;-74
2022/01/11 05:28:45;;;;;;;73.83;30.17;;;0.80;99.90;;;;;;4954850;28;20359;-74
2022/01/11 05:31:12;;;;;;;65.37;26.13;;;0.80;99.90;;;;;;4952451;28;20411;-74
2022/01/11 05:33:39;;;;;;;69.60;27.80;;;0.80;99.90;;;;;;4951087;28;20023;-74
2022/01/11 05:36:06;;;;;;;69.70;28.37;;;0.90;99.90;;;;;;4952633;28;20035;-74
2022/01/11 05:38:35;;;;;;;63.07;25.57;;;0.80;99.90;;;;;;4937957;28;20027;-73
2022/01/11 05:41:01;;;;;;;67.93;28.30;;;0.90;99.90;;;;;;4955680;28;20019;-73
2022/01/11 05:43:29;;;;;;;63.07;24.63;;;0.90;99.90;;;;;;4951013;28;20034;-74
2022/01/11 05:45:55;;;;;;;65.67;27.23;;;0.90;99.90;;;;;;4935817;28;20019;-74
2022/01/11 05:48:22;;;;;;;64.10;26.03;;;0.90;99.90;;;;;;4952544;28;20035;-74
2022/01/11 05:50:49;;;;;;;57.30;25.33;;;0.90;99.90;;;;;;4939091;28;20569;-74
2022/01/11 05:53:18;;;;;;;69.20;28.40;;;0.90;99.90;;;;;;4950715;28;20035;-74
2022/01/11 05:55:44;;;;;;;59.13;24.83;;;0.90;99.90;;;;;;4951200;28;20043;-74
2022/01/11 05:58:11;;;;;;;70.37;24.93;;;0.90;99.90;;;;;;4936656;28;20023;-74
2022/01/11 06:00:37;;;;;;;54.83;24.20;;;0.90;99.90;;;;;;4954415;28;20019;-73
2022/01/11 06:03:04;;;;;;;57.73;25.07;;;0.90;99.90;;;;;;4949324;28;20387;-74
2022/01/11 06:05:39;;;;;;;;;;;0.90;99.90;;;;;;4934749;28;20470;-73
2022/01/11 06:08:08;;;;;;;55.90;23.93;;;1.00;99.90;;;;;;4965560;28;19925;-74
2022/01/11 06:10:35;;;;;;;55.37;24.37;;;0.90;99.90;;;;;;4952175;28;20406;-74
2022/01/11 06:13:02;;;;;;;49.47;23.63;;;1.00;99.90;;;;;;4950292;28;20038;-73
2022/01/11 06:15:30;;;;;;;63.90;27.10;;;0.90;99.90;;;;;;4951645;28;20041;-74
2022/01/11 06:17:58;;;;;;;54.03;23.83;;;0.90;99.90;;;;;;4953230;28;20509;-75
2022/01/11 06:20:25;;;;;;;49.43;21.30;;;0.90;99.90;;;;;;4953745;28;20027;-74
2022/01/11 06:22:53;;;;;;;57.80;24.67;;;0.90;99.90;;;;;;4949324;28;20310;-74
2022/01/11 06:25:20;;;;;;;62.40;27.83;;;0.90;99.90;;;;;;4918651;28;20019;-73
2022/01/11 06:27:47;;;;;;;86.93;33.47;;;0.90;99.90;;;;;;4952280;28;20034;-74
2022/01/11 06:30:15;;;;;;;70.20;28.53;;;0.90;99.90;;;;;;4950120;28;20043;-74
2022/01/11 06:32:45;;;;;;;71.63;31.03;;;0.90;99.90;;;;;;4948131;28;20038;-74
2022/01/11 06:35:17;;;;;;;59.20;26.80;;;0.90;99.90;;;;;;4950331;28;20031;-74
2022/01/11 06:37:47;;;;;;;53.97;24.93;;;0.90;99.90;;;;;;4949765;28;20390;-74
2022/01/11 06:40:17;;;;;;;61.13;26.20;;;0.90;99.90;;;;;;4950897;28;20479;-74
2022/01/11 06:42:46;;;;;;;65.27;24.87;;;0.90;99.90;;;;;;4961851;28;20031;-75
2022/01/11 06:45:14;;;;;;;59.33;24.80;;;0.90;99.90;;;;;;4949888;28;20019;-74
2022/01/11 06:47:43;;;;;;;62.17;25.37;;;0.90;99.90;;;;;;4949074;28;20058;-74
2022/01/11 06:50:11;;;;;;;59.70;25.83;;;0.90;99.90;;;;;;4951621;28;20027;-74
2022/01/11 06:52:38;;;;;;;57.87;24.17;;;0.90;99.90;;;;;;4948492;28;20493;-74
2022/01/11 06:55:07;;;;;;;60.73;24.53;;;1.00;99.90;;;;;;4951354;28;20470;-74
2022/01/11 06:57:35;;;;;;;64.47;28.00;;;1.00;99.90;;;;;;4952018;28;20039;-74
2022/01/11 07:00:07;;;;;;;105.03;38.00;;;1.00;99.90;;;;;;4933781;28;20047;-74
2022/01/11 07:02:34;;;;;;;;;;;1.00;99.90;;;;;;4950602;28;20031;-74
2022/01/11 07:05:20;;;;;;;96.93;36.93;;;0.90;99.90;;;;;;4952013;28;20361;-74
2022/01/11 07:07:48;;;;;;;76.53;34.03;;;0.90;99.90;;;;;;4952594;28;20058;-74
2022/01/11 07:10:16;;;;;;;103.87;38.33;;;0.90;99.90;;;;;;4919579;28;20038;-73
2022/01/11 07:12:42;;;;;;;88.80;35.40;;;0.90;99.90;;;;;;4949718;28;20475;-73
2022/01/11 07:15:10;;;;;;;72.37;31.03;;;0.80;99.90;;;;;;4949669;28;20030;-73
2022/01/11 07:17:37;;;;;;;88.47;35.07;;;0.80;99.90;;;;;;4935952;28;20057;-73
2022/01/11 07:20:05;;;;;;;79.73;31.60;;;0.80;99.90;;;;;;4953099;28;22338;-73
2022/01/11 07:22:33;;;;;;;76.33;30.23;;;0.80;99.90;;;;;;4931165;28;21479;-74
2022/01/11 07:25:01;;;;;;;74.53;29.83;;;0.80;99.90;;;;;;4936173;28;20093;-73
2022/01/11 07:27:28;;;;;;;82.60;31.47;;;0.80;99.90;;;;;;4967645;28;20027;-73
2022/01/11 07:29:55;;;;;;;77.70;32.40;;;0.80;99.90;;;;;;4951777;28;20034;-74
2022/01/11 07:32:22;;;;;;;102.43;38.43;;;0.90;99.90;;;;;;4945820;28;20042;-74
2022/01/11 07:34:50;;;;;;;64.77;27.77;;;0.90;99.90;;;;;;4950230;28;20882;-73
2022/01/11 07:37:17;;;;;;;65.53;28.00;;;0.90;99.90;;;;;;4934774;28;20038;-73
2022/01/11 07:39:46;;;;;;;69.27;28.57;;;0.90;99.90;;;;;;4943027;28;20031;-73
2022/01/11 07:42:13;;;;;;;66.57;27.77;;;0.90;99.90;;;;;;4946963;28;20031;-73
2022/01/11 07:44:54;;;;;;;67.97;28.00;;;0.90;99.90;;;;;;4950459;28;20039;-74
2022/01/11 07:47:22;;;;;;;72.13;31.00;;;0.90;99.90;;;;;;4950838;28;20340;-73
2022/01/11 07:49:48;;;;;;;71.53;31.53;;;1.00;99.90;;;;;;4949437;28;20035;-73
2022/01/11 07:52:16;;;;;;;72.13;31.27;;;1.00;99.90;;;;;;4928591;28;20537;-75
2022/01/11 07:54:44;;;;;;;86.20;34.77;;;0.90;99.90;;;;;;4931394;28;20027;-74
2022/01/11 07:57:14;;;;;;;75.57;32.63;;;0.90;99.90;;;;;;4947153;28;20043;-74
2022/01/11 07:59:42;;;;;;;68.87;32.43;;;1.00;99.90;;;;;;4948025;28;20019;-74
2022/01/11 08:02:08;;;;;;;76.53;33.10;;;0.90;99.90;;;;;;4950707;28;20398;-74
2022/01/11 08:04:35;;;;;;;79.47;32.37;;;0.90;99.90;;;;;;4932802;28;20466;-74
2022/01/11 08:07:02;;;;;;;60.27;27.80;;;0.90;99.90;;;;;;4930969;28;20046;-73
2022/01/11 08:09:38;;;;;;;55.80;25.87;;;0.90;99.90;;;;;;4950333;28;20038;-74
2022/01/11 08:12:05;;;;;;;53.70;25.17;;;0.90;99.90;;;;;;4930968;28;20580;-74
2022/01/11 08:14:32;;;;;;;62.87;29.53;;;0.90;99.90;;;;;;4944020;28;21769;-74
2022/01/11 08:17:00;;;;;;;51.67;26.33;;;0.90;99.90;;;;;;4934798;28;20042;-74
2022/01/11 08:19:27;;;;;;;56.10;25.30;;;0.90;99.90;;;;;;4951080;28;20027;-74
2022/01/11 08:21:56;;;;;;;55.87;25.73;;;1.00;99.90;;;;;;4950560;28;20039;-74
2022/01/11 08:24:26;;;;;;;48.93;23.63;;;1.00;99.90;;;;;;4965699;28;20378;-74
2022/01/11 08:26:54;;;;;;;50.70;24.50;;;1.00;99.90;;;;;;4957382;28;20042;-74
2022/01/11 08:29:23;;;;;;;57.07;27.13;;;1.00;99.90;;;;;;4958692;28;20106;-74
2022/01/11 08:31:55;;;;;;;45.70;23.33;;;1.00;99.90;;;;;;4949195;28;20038;-74
2022/01/11 08:34:22;;;;;;;46.83;24.63;;;1.00;99.90;;;;;;4947850;28;20799;-73
2022/01/11 08:36:50;;;;;;;48.37;21.87;;;1.00;99.90;;;;;;4949920;28;20046;-74
2022/01/11 08:39:19;;;;;;;57.77;29.90;;;1.00;99.90;;;;;;4946005;28;20034;-74
2022/01/11 08:41:46;;;;;;;47.33;24.33;;;1.10;99.90;;;;;;4952811;28;20479;-74
2022/01/11 08:44:13;;;;;;;49.10;26.17;;;1.10;99.90;;;;;;4945166;28;20027;-74
2022/01/11 08:46:43;;;;;;;46.30;23.97;;;1.20;99.90;;;;;;4945384;28;21058;-74
2022/01/11 08:49:17;;;;;;;41.17;20.73;;;1.20;99.90;;;;;;4935175;28;20035;-74
2022/01/11 08:51:44;;;;;;;48.07;23.90;;;1.30;99.90;;;;;;4934937;28;20034;-74
2022/01/11 08:54:13;;;;;;;42.13;23.67;;;1.40;99.90;;;;;;4934114;28;20073;-75
2022/01/11 08:56:41;;;;;;;43.03;22.23;;;1.40;99.90;;;;;;4950156;28;20047;-78
2022/01/11 08:59:10;;;;;;;43.47;22.70;;;1.40;99.90;;;;;;4931756;28;20861;-75
2022/01/11 09:01:38;;;;;;;36.63;20.97;;;1.40;99.90;;;;;;4934432;28;20489;-77
2022/01/11 09:04:08;;;;;;;42.40;21.83;;;1.50;99.90;;;;;;4945573;28;20030;-79
2022/01/11 09:06:48;;;;;;;35.63;19.80;;;1.50;99.90;;;;;;4967572;28;20035;-74
2022/01/11 09:09:14;;;;;;;46.30;25.23;;;1.50;99.90;;;;;;4952621;28;20027;-75
2022/01/11 09:11:42;;;;;;;50.40;28.33;;;1.60;99.90;;;;;;4953501;28;20038;-75
2022/01/11 09:14:10;;;;;;;44.13;23.43;;;1.70;99.90;;;;;;4931596;28;20395;-75
2022/01/11 09:16:37;;;;;;;37.87;21.23;;;1.70;99.90;;;;;;4953314;28;20383;-75
2022/01/11 09:19:04;;;;;;;41.30;22.07;;;1.70;99.90;;;;;;4953081;28;20027;-74
2022/01/11 09:21:31;;;;;;;45.30;25.10;;;1.80;99.90;;;;;;4951228;28;20022;-74
2022/01/11 09:23:58;;;;;;;44.07;23.87;;;1.80;99.90;;;;;;4950636;28;20042;-74
2022/01/11 09:26:31;;;;;;;38.45;22.33;;;1.90;99.90;;;;;;4953837;28;20039;-75
2022/01/11 09:28:58;;;;;;;41.80;21.97;;;1.90;99.90;;;;;;4935692;28;20615;-74
2022/01/11 09:31:26;;;;;;;38.37;21.37;;;1.90;99.90;;;;;;4937165;28;20058;-74
2022/01/11 09:33:57;;;;;;;36.00;20.17;;;1.90;99.90;;;;;;4947461;28;20062;-74
2022/01/11 09:36:24;;;;;;;35.93;21.67;;;2.00;99.90;;;;;;4938495;28;20023;-75
2022/01/11 09:38:50;;;;;;;37.40;21.97;;;2.10;99.90;;;;;;4952052;28;20374;-74
2022/01/11 09:41:19;;;;;;;35.23;20.80;;;2.20;99.90;;;;;;4953685;28;20022;-74
2022/01/11 09:43:46;;;;;;;39.47;22.10;;;2.20;99.90;;;;;;4948266;28;20019;-75
2022/01/11 09:46:13;;;;;;;38.60;21.53;;;2.30;99.90;;;;;;4936582;28;20470;-74
2022/01/11 09:48:43;;;;;;;37.83;21.20;;;2.30;99.90;;;;;;4936886;28;20368;-74
2022/01/11 09:51:12;;;;;;;40.73;21.57;;;2.40;99.90;;;;;;4937953;28;20511;-74
2022/01/11 09:53:40;;;;;;;36.53;21.07;;;2.50;99.90;;;;;;4948663;28;20474;-75
2022/01/11 09:56:10;;;;;;;46.93;21.63;;;2.50;99.90;;;;;;4952319;28;20132;-75
2022/01/11 09:58:40;;;;;;;39.57;22.73;;;2.60;99.90;;;;;;4937251;28;20053;-75
2022/01/11 10:01:30;;;;;;;38.13;22.38;;;2.60;99.90;;;;;;4941517;28;20035;-75
2022/01/11 10:04:25;;;;;;;36.95;21.58;;;2.60;99.90;;;;;;4945250;28;20718;-75
2022/01/11 10:07:09;;;;;;;40.20;21.80;;;2.60;99.90;;;;;;4949747;28;20406;-75
2022/01/11 10:09:48;;;;;;;34.27;20.67;;;2.70;99.90;;;;;;4938711;28;20039;-75
2022/01/11 10:12:18;;;;;;;41.07;23.43;;;2.60;99.90;;;;;;4949748;28;20032;-75
2022/01/11 10:14:57;;;;;;;40.63;22.17;;;2.60;99.90;;;;;;4938099;28;20030;-79
2022/01/11 10:17:28;;;;;;;37.63;20.00;;;2.60;99.90;;;;;;4937020;28;20034;-74
2022/01/11 10:20:34;;;;;;;41.03;20.60;;;2.60;99.90;;;;;;4951906;28;20019;-75
2022/01/11 10:23:16;;;;;;;40.37;21.63;;;2.60;99.90;;;;;;4912464;28;20023;-74
2022/01/11 10:25:50;;;;;;;41.80;23.57;;;2.60;99.90;;;;;;4950559;28;20031;-74
2022/01/11 10:28:17;;;;;;;45.63;24.07;;;2.60;99.90;;;;;;4952721;28;20103;-74
2022/01/11 10:30:49;;;;;;;40.30;20.65;;;2.60;99.90;;;;;;4952842;28;20054;-74
2022/01/11 10:33:16;;;;;;;42.47;21.93;;;2.60;99.90;;;;;;4950265;28;20027;-74
2022/01/11 10:35:46;;;;;;;44.03;21.50;;;2.70;99.90;;;;;;4952272;28;20039;-74
2022/01/11 10:38:29;;;;;;;39.30;20.10;;;2.70;99.90;;;;;;4934963;28;20071;-74
2022/01/11 10:41:07;;;;;;;40.07;20.30;;;2.60;99.90;;;;;;4950109;28;20022;-74
2022/01/11 10:43:43;;;;;;;38.20;20.83;;;2.70;99.90;;;;;;4931257;28;20019;-74
2022/01/11 10:46:13;;;;;;;40.00;19.73;;;2.70;99.90;;;;;;4951636;28;20030;-74
2022/01/11 10:48:44;;;;;;;39.83;20.03;;;2.70;99.90;;;;;;4952813;28;20035;-75
2022/01/11 10:51:15;;;;;;;45.87;20.87;;;2.70;99.90;;;;;;4952819;28;20130;-74
2022/01/11 10:53:49;;;;;;;44.40;22.20;;;2.80;99.90;;;;;;4948431;28;20364;-74
2022/01/11 10:56:16;;;;;;;41.22;20.40;;;2.80;99.90;;;;;;4934560;28;20032;-74
2022/01/11 10:59:09;;;;;;;37.67;19.00;;;2.90;99.90;;;;;;4937476;28;20387;-75
2022/01/11 11:01:38;;;;;;;40.03;20.63;;;2.90;99.90;;;;;;4954597;28;20029;-74
2022/01/11 11:04:05;;;;;;;45.53;22.30;;;3.00;99.90;;;;;;4948974;28;20031;-74
2022/01/11 11:06:32;;;;;;;43.57;22.00;;;3.10;99.90;;;;;;4936125;28;20032;-74
2022/01/11 11:09:01;;;;;;;44.47;20.43;;;3.10;99.90;;;;;;4950525;28;20050;-74
2022/01/11 11:11:33;;;;;;;39.77;21.50;;;3.10;99.90;;;;;;4948408;28;20042;-74
2022/01/11 11:14:47;;;;;;;38.57;19.93;;;3.20;99.90;;;;;;4950766;28;20054;-74
2022/01/11 11:17:33;;;;;;;38.93;20.10;;;3.20;99.90;;;;;;4954073;28;20030;-74
2022/01/11 11:20:07;;;;;;;38.33;19.23;;;3.20;99.90;;;;;;4953571;28;20022;-74
2022/01/11 11:22:34;;;;;;;38.45;19.77;;;3.20;99.90;;;;;;4946891;28;20364;-74
2022/01/11 11:25:02;;;;;;;42.65;20.85;;;3.30;99.90;;;;;;4934493;28;20030;-75
2022/01/11 11:27:31;;;;;;;42.58;21.65;;;3.30;99.90;;;;;;4952281;28;20913;-74
2022/01/11 11:30:01;;;;;;;41.00;21.33;;;3.30;99.90;;;;;;4951848;28;20027;-75
2022/01/11 11:32:30;;;;;;;42.40;20.40;;;3.30;99.90;;;;;;4947694;28;20688;-74
2022/01/11 11:34:56;;;;;;;40.57;20.07;;;3.30;99.90;;;;;;4944808;28;20031;-74
2022/01/11 11:37:31;;;;;;;38.47;18.92;;;3.40;99.90;;;;;;4949532;28;20050;-74
2022/01/11 11:40:02;;;;;;;40.40;18.45;;;3.40;99.90;;;;;;4946211;28;20023;-74
2022/01/11 11:42:29;;;;;;;46.05;21.20;;;3.50;99.90;;;;;;4949356;28;20019;-74
2022/01/11 11:44:58;;;;;;;37.40;19.47;;;3.60;99.90;;;;;;4965851;28;20493;-74
2022/01/11 11:47:31;;;;;;;35.53;17.35;;;3.70;99.90;;;;;;4954208;28;20025;-74
2022/01/11 11:50:05;;;;;;;40.40;18.92;;;3.80;99.90;;;;;;4951919;28;20027;-74
2022/01/11 11:52:44;;;;;;;33.42;18.02;;;3.80;99.90;;;;;;4947063;28;20019;-74
2022/01/11 11:55:16;;;;;;;39.38;19.67;;;3.90;99.90;;;;;;4951706;28;20544;-74
2022/01/11 11:57:44;;;;;;;40.78;19.90;;;4.00;99.90;;;;;;4965522;28;20038;-74
2022/01/11 12:00:14;;;;;;;34.57;18.40;;;4.00;99.90;;;;;;4954103;28;20083;-74
2022/01/11 12:02:43;;;;;;;37.10;18.38;;;4.00;99.90;;;;;;4950343;28;20034;-74
2022/01/11 12:05:12;;;;;;;38.92;19.02;;;4.00;99.90;;;;;;4952499;28;20034;-75
2022/01/11 12:07:42;;;;;;;33.88;17.88;;;4.00;99.90;;;;;;4954411;28;20374;-74
2022/01/11 12:10:26;;;;;;;33.10;17.40;;;4.10;99.90;;;;;;4935590;28;20031;-76
2022/01/11 12:12:55;;;;;;;28.45;16.52;;;4.10;99.90;;;;;;4931645;28;20031;-75
2022/01/11 12:15:21;;;;;;;32.25;16.80;;;4.20;99.90;;;;;;4950156;28;20031;-75
2022/01/11 12:17:59;;;;;;;32.55;16.92;;;4.20;99.90;;;;;;4951944;28;20046;-75
2022/01/11 12:20:46;;;;;;;30.48;16.67;;;4.20;99.90;;;;;;4934264;28;20460;-75
2022/01/11 12:23:21;;;;;;;31.48;16.60;;;4.30;99.90;;;;;;4947750;28;20019;-75
2022/01/11 12:25:52;;;;;;;36.22;17.27;;;4.30;99.90;;;;;;4953174;28;20035;-75
2022/01/11 12:28:24;;;;;;;29.15;15.13;;;4.30;99.90;;;;;;4953526;28;20042;-76
2022/01/11 12:30:50;;;;;;;29.73;16.70;;;4.40;99.90;;;;;;4934026;28;20039;-76
2022/01/11 12:33:22;;;;;;;29.73;15.73;;;4.30;99.90;;;;;;4930457;28;20055;-74
2022/01/11 12:36:00;;;;;;;46.92;24.83;;;4.30;99.90;;;;;;4949447;28;20367;-74
2022/01/11 12:38:33;;;;;;;35.30;18.88;;;4.30;99.90;;;;;;4947097;28;20592;-74
2022/01/11 12:41:29;;;;;;;42.38;23.27;;;4.30;99.90;;;;;;4931489;28;20122;-76
2022/01/11 12:44:27;;;;;;;42.65;21.38;;;4.30;99.90;;;;;;4949926;28;20861;-75
2022/01/11 12:47:02;;;;;;;33.65;17.83;;;4.20;99.90;;;;;;4949389;28;20030;-74
2022/01/11 12:49:31;;;;;;;33.72;19.08;;;4.20;99.90;;;;;;4936163;28;20395;-75
2022/01/11 12:52:09;;;;;;;33.03;17.95;;;4.10;99.90;;;;;;4953133;28;20018;-74